sensor_id;sensor_type;location;lat;lon;timestamp;temperature;humidity
35085;SHT85;21267;51.032;6.998;2023-02-10T06:11:11;0.49;93.44
35085;SHT85;21267;51.032;6.998;2023-02-10T06:13:51;0.42;93.54
35085;SHT85;21267;51.032;6.998;2023-02-10T06:16:32;0.42;93.73
35085;SHT85;21267;51.032;6.998;2023-02-10T06:18:59;0.41;93.80
35085;SHT85;21267;51.032;6.998;2023-02-10T06:21:39;0.38;93.89
35085;SHT85;21267;51.032;6.998;2023-02-10T06:24:06;0.21;94.14
35085;SHT85;21267;51.032;6.998;2023-02-10T06:26:46;0.21;94.41
35085;SHT85;21267;51.032;6.998;2023-02-10T06:29:13;0.14;94.47
35085;SHT85;21267;51.032;6.998;2023-02-10T06:31:40;0.08;94.44
35085;SHT85;21267;51.032;6.998;2023-02-10T06:34:06;0.18;94.47
35085;SHT85;21267;51.032;6.998;2023-02-10T06:36:34;0.21;94.55
35085;SHT85;21267;51.032;6.998;2023-02-10T06:39:00;0.25;94.39
35085;SHT85;21267;51.032;6.998;2023-02-10T06:41:27;0.21;94.54
35085;SHT85;21267;51.032;6.998;2023-02-10T06:43:53;0.22;94.61
35085;SHT85;21267;51.032;6.998;2023-02-10T06:46:21;0.38;94.61
35085;SHT85;21267;51.032;6.998;2023-02-10T06:48:47;0.29;94.61
35085;SHT85;21267;51.032;6.998;2023-02-10T06:51:14;0.37;94.52
35085;SHT85;21267;51.032;6.998;2023-02-10T06:53:42;0.41;94.41
35085;SHT85;21267;51.032;6.998;2023-02-10T06:56:09;0.41;94.40
35085;SHT85;21267;51.032;6.998;2023-02-10T06:58:36;0.53;94.50
35085;SHT85;21267;51.032;6.998;2023-02-10T07:01:09;0.59;94.24
35085;SHT85;21267;51.032;6.998;2023-02-10T07:03:37;0.62;94.16
35085;SHT85;21267;51.032;6.998;2023-02-10T07:06:04;0.62;94.16
35085;SHT85;21267;51.032;6.998;2023-02-10T07:08:30;0.58;94.09
35085;SHT85;21267;51.032;6.998;2023-02-10T07:10:57;0.63;94.06
35085;SHT85;21267;51.032;6.998;2023-02-10T07:13:23;0.63;93.75
35085;SHT85;21267;51.032;6.998;2023-02-10T07:15:50;0.60;93.84
35085;SHT85;21267;51.032;6.998;2023-02-10T07:18:17;0.59;93.75
35085;SHT85;21267;51.032;6.998;2023-02-10T07:20:43;0.75;93.76
35085;SHT85;21267;51.032;6.998;2023-02-10T07:23:10;0.73;93.44
35085;SHT85;21267;51.032;6.998;2023-02-10T07:25:36;0.81;93.42
35085;SHT85;21267;51.032;6.998;2023-02-10T07:28:03;0.90;93.27
35085;SHT85;21267;51.032;6.998;2023-02-10T07:33:38;1.05;92.90
35085;SHT85;21267;51.032;6.998;2023-02-10T07:36:05;1.11;92.82
35085;SHT85;21267;51.032;6.998;2023-02-10T07:38:32;1.04;92.59
35085;SHT85;21267;51.032;6.998;2023-02-10T07:40:59;1.03;92.60
35085;SHT85;21267;51.032;6.998;2023-02-10T07:43:25;1.03;92.79
35085;SHT85;21267;51.032;6.998;2023-02-10T07:45:52;1.04;92.80
35085;SHT85;21267;51.032;6.998;2023-02-10T07:48:19;1.18;92.64
35085;SHT85;21267;51.032;6.998;2023-02-10T07:50:46;1.34;92.40
35085;SHT85;21267;51.032;6.998;2023-02-10T07:53:13;1.27;92.40
35085;SHT85;21267;51.032;6.998;2023-02-10T07:55:40;1.35;92.17
35085;SHT85;21267;51.032;6.998;2023-02-10T07:58:07;1.30;92.29
35085;SHT85;21267;51.032;6.998;2023-02-10T08:00:34;1.34;92.22
35085;SHT85;21267;51.032;6.998;2023-02-10T08:03:00;1.44;92.01
35085;SHT85;21267;51.032;6.998;2023-02-10T08:05:27;1.48;91.90
35085;SHT85;21267;51.032;6.998;2023-02-10T08:07:55;1.39;91.87
35085;SHT85;21267;51.032;6.998;2023-02-10T08:10:22;1.45;91.92
35085;SHT85;21267;51.032;6.998;2023-02-10T08:12:49;1.49;91.88
35085;SHT85;21267;51.032;6.998;2023-02-10T08:15:16;1.48;91.83
35085;SHT85;21267;51.032;6.998;2023-02-10T08:17:44;1.51;91.73
35085;SHT85;21267;51.032;6.998;2023-02-10T08:20:11;1.55;91.93
35085;SHT85;21267;51.032;6.998;2023-02-10T08:22:37;1.69;91.66
35085;SHT85;21267;51.032;6.998;2023-02-10T08:25:04;1.63;91.68
35085;SHT85;21267;51.032;6.998;2023-02-10T08:27:31;1.72;91.56
35085;SHT85;21267;51.032;6.998;2023-02-10T08:29:58;1.69;91.63
35085;SHT85;21267;51.032;6.998;2023-02-10T08:32:25;1.69;91.59
35085;SHT85;21267;51.032;6.998;2023-02-10T08:34:52;1.70;91.59
35085;SHT85;21267;51.032;6.998;2023-02-10T08:37:19;1.75;91.35
35085;SHT85;21267;51.032;6.998;2023-02-10T08:39:45;1.76;91.10
35085;SHT85;21267;51.032;6.998;2023-02-10T08:42:12;1.80;91.12
35085;SHT85;21267;51.032;6.998;2023-02-10T08:44:39;2.00;90.87
35085;SHT85;21267;51.032;6.998;2023-02-10T08:47:05;2.03;90.48
35085;SHT85;21267;51.032;6.998;2023-02-10T08:49:35;2.00;90.69
35085;SHT85;21267;51.032;6.998;2023-02-10T08:52:01;2.10;90.11
35085;SHT85;21267;51.032;6.998;2023-02-10T08:54:28;2.17;90.14
35085;SHT85;21267;51.032;6.998;2023-02-10T08:56:54;2.13;90.05
35085;SHT85;21267;51.032;6.998;2023-02-10T08:59:21;2.14;90.02
35085;SHT85;21267;51.032;6.998;2023-02-10T09:01:48;2.17;89.76
35085;SHT85;21267;51.032;6.998;2023-02-10T09:04:16;2.18;89.82
35085;SHT85;21267;51.032;6.998;2023-02-10T09:06:43;2.38;89.65
35085;SHT85;21267;51.032;6.998;2023-02-10T09:09:11;2.36;89.22
35085;SHT85;21267;51.032;6.998;2023-02-10T09:11:38;2.52;88.86
35085;SHT85;21267;51.032;6.998;2023-02-10T09:14:05;2.61;88.64
35085;SHT85;21267;51.032;6.998;2023-02-10T09:16:32;2.61;88.52
35085;SHT85;21267;51.032;6.998;2023-02-10T09:18:59;2.68;88.64
35085;SHT85;21267;51.032;6.998;2023-02-10T09:21:26;2.66;88.61
35085;SHT85;21267;51.032;6.998;2023-02-10T09:24:06;2.77;88.43
35085;SHT85;21267;51.032;6.998;2023-02-10T09:26:33;2.66;88.59
35085;SHT85;21267;51.032;6.998;2023-02-10T09:28:59;2.75;88.77
35085;SHT85;21267;51.032;6.998;2023-02-10T09:31:26;2.86;88.71
35085;SHT85;21267;51.032;6.998;2023-02-10T09:33:53;2.96;88.30
35085;SHT85;21267;51.032;6.998;2023-02-10T09:36:20;3.02;89.07
35085;SHT85;21267;51.032;6.998;2023-02-10T09:38:46;3.13;88.17
35085;SHT85;21267;51.032;6.998;2023-02-10T09:44:16;3.26;87.92
35085;SHT85;21267;51.032;6.998;2023-02-10T09:55:17;3.47;87.53
35085;SHT85;21267;51.032;6.998;2023-02-10T09:57:50;3.51;87.33
35085;SHT85;21267;51.032;6.998;2023-02-10T10:00:48;3.64;87.05
35085;SHT85;21267;51.032;6.998;2023-02-10T10:03:26;3.79;86.32
35085;SHT85;21267;51.032;6.998;2023-02-10T10:06:07;4.85;85.43
35085;SHT85;21267;51.032;6.998;2023-02-10T10:08:45;5.47;82.24
35085;SHT85;21267;51.032;6.998;2023-02-10T10:11:19;6.28;80.34
35085;SHT85;21267;51.032;6.998;2023-02-10T10:13:48;6.84;76.69
35085;SHT85;21267;51.032;6.998;2023-02-10T10:30:47;8.51;71.42
35085;SHT85;21267;51.032;6.998;2023-02-10T10:35:47;8.82;71.08
35085;SHT85;21267;51.032;6.998;2023-02-10T10:38:23;9.36;69.99
35085;SHT85;21267;51.032;6.998;2023-02-10T10:40:56;9.05;69.80
35085;SHT85;21267;51.032;6.998;2023-02-10T10:43:45;10.06;67.48
35085;SHT85;21267;51.032;6.998;2023-02-10T10:46:19;10.66;66.90
35085;SHT85;21267;51.032;6.998;2023-02-10T10:48:47;10.25;66.67
35085;SHT85;21267;51.032;6.998;2023-02-10T10:51:14;10.66;65.81
35085;SHT85;21267;51.032;6.998;2023-02-10T10:53:46;10.06;66.36
35085;SHT85;21267;51.032;6.998;2023-02-10T10:58:59;11.27;63.39
35085;SHT85;21267;51.032;6.998;2023-02-10T11:01:41;11.46;63.78
35085;SHT85;21267;51.032;6.998;2023-02-10T11:04:13;10.48;63.51
35085;SHT85;21267;51.032;6.998;2023-02-10T11:06:43;9.78;65.55
35085;SHT85;21267;51.032;6.998;2023-02-10T11:09:23;10.50;65.83
35085;SHT85;21267;51.032;6.998;2023-02-10T11:11:53;11.42;62.29
35085;SHT85;21267;51.032;6.998;2023-02-10T11:14:26;11.41;62.56
35085;SHT85;21267;51.032;6.998;2023-02-10T11:16:56;11.21;63.51
35085;SHT85;21267;51.032;6.998;2023-02-10T11:19:27;11.80;61.65
35085;SHT85;21267;51.032;6.998;2023-02-10T11:22:13;10.76;65.40
35085;SHT85;21267;51.032;6.998;2023-02-10T11:24:49;11.14;65.18
35085;SHT85;21267;51.032;6.998;2023-02-10T11:27:16;11.80;63.20
35085;SHT85;21267;51.032;6.998;2023-02-10T11:29:56;12.47;60.52
35085;SHT85;21267;51.032;6.998;2023-02-10T11:32:32;12.62;60.68
35085;SHT85;21267;51.032;6.998;2023-02-10T11:35:02;12.68;60.13
35085;SHT85;21267;51.032;6.998;2023-02-10T11:37:36;12.31;60.26
35085;SHT85;21267;51.032;6.998;2023-02-10T11:40:16;11.93;62.18
35085;SHT85;21267;51.032;6.998;2023-02-10T11:42:48;12.48;60.67
35085;SHT85;21267;51.032;6.998;2023-02-10T11:45:21;11.99;60.90
35085;SHT85;21267;51.032;6.998;2023-02-10T11:47:59;12.38;60.92
35085;SHT85;21267;51.032;6.998;2023-02-10T11:50:29;11.79;59.74
35085;SHT85;21267;51.032;6.998;2023-02-10T11:52:56;12.14;60.97
35085;SHT85;21267;51.032;6.998;2023-02-10T11:55:31;12.27;61.13
35085;SHT85;21267;51.032;6.998;2023-02-10T12:01:51;11.12;62.69
35085;SHT85;21267;51.032;6.998;2023-02-10T12:07:26;10.34;64.93
35085;SHT85;21267;51.032;6.998;2023-02-10T12:10:15;10.33;66.16
35085;SHT85;21267;51.032;6.998;2023-02-10T12:15:57;9.30;68.79
35085;SHT85;21267;51.032;6.998;2023-02-10T12:21:14;9.43;68.26
35085;SHT85;21267;51.032;6.998;2023-02-10T12:26:54;9.69;69.15
35085;SHT85;21267;51.032;6.998;2023-02-10T12:40:41;9.88;67.71
35085;SHT85;21267;51.032;6.998;2023-02-10T12:49:13;10.23;66.61
35085;SHT85;21267;51.032;6.998;2023-02-10T12:52:07;10.28;65.98
35085;SHT85;21267;51.032;6.998;2023-02-10T12:59:48;10.87;64.35
35085;SHT85;21267;51.032;6.998;2023-02-10T13:02:19;11.11;63.74
35085;SHT85;21267;51.032;6.998;2023-02-10T13:04:58;11.00;63.63
35085;SHT85;21267;51.032;6.998;2023-02-10T13:07:48;11.50;62.25
35085;SHT85;21267;51.032;6.998;2023-02-10T13:10:22;11.48;62.06
35085;SHT85;21267;51.032;6.998;2023-02-10T13:12:53;10.77;62.93
35085;SHT85;21267;51.032;6.998;2023-02-10T13:15:53;10.22;63.85
35085;SHT85;21267;51.032;6.998;2023-02-10T13:18:27;10.18;64.17
35085;SHT85;21267;51.032;6.998;2023-02-10T13:21:17;10.11;64.63
35085;SHT85;21267;51.032;6.998;2023-02-10T13:23:53;10.64;63.28
35085;SHT85;21267;51.032;6.998;2023-02-10T13:26:35;11.31;62.24
35085;SHT85;21267;51.032;6.998;2023-02-10T13:31:55;11.06;60.35
35085;SHT85;21267;51.032;6.998;2023-02-10T13:34:28;10.33;60.88
35085;SHT85;21267;51.032;6.998;2023-02-10T13:37:04;10.25;60.94
35085;SHT85;21267;51.032;6.998;2023-02-10T13:39:32;10.12;61.25
35085;SHT85;21267;51.032;6.998;2023-02-10T13:42:24;10.19;61.21
35085;SHT85;21267;51.032;6.998;2023-02-10T13:47:35;9.65;62.17
35085;SHT85;21267;51.032;6.998;2023-02-10T13:50:20;9.54;62.79
35085;SHT85;21267;51.032;6.998;2023-02-10T13:52:57;9.36;63.44
35085;SHT85;21267;51.032;6.998;2023-02-10T14:00:50;9.46;63.31
35085;SHT85;21267;51.032;6.998;2023-02-10T14:03:22;9.46;63.14
35085;SHT85;21267;51.032;6.998;2023-02-10T14:06:01;9.69;62.71
35085;SHT85;21267;51.032;6.998;2023-02-10T14:08:40;10.21;62.10
35085;SHT85;21267;51.032;6.998;2023-02-10T14:11:37;10.08;61.07
35085;SHT85;21267;51.032;6.998;2023-02-10T14:14:36;10.28;60.14
35085;SHT85;21267;51.032;6.998;2023-02-10T14:19:45;10.26;60.27
35085;SHT85;21267;51.032;6.998;2023-02-10T14:22:25;9.64;61.57
35085;SHT85;21267;51.032;6.998;2023-02-10T14:24:52;9.40;61.92
35085;SHT85;21267;51.032;6.998;2023-02-10T14:27:23;9.39;62.48
35085;SHT85;21267;51.032;6.998;2023-02-10T14:29:55;9.63;62.15
35085;SHT85;21267;51.032;6.998;2023-02-10T14:32:22;9.65;61.97
35085;SHT85;21267;51.032;6.998;2023-02-10T14:35:16;9.95;61.56
35085;SHT85;21267;51.032;6.998;2023-02-10T14:37:55;10.19;60.79
35085;SHT85;21267;51.032;6.998;2023-02-10T14:40:24;10.84;59.90
35085;SHT85;21267;51.032;6.998;2023-02-10T14:42:51;10.59;59.50
35085;SHT85;21267;51.032;6.998;2023-02-10T14:45:23;10.18;60.44
35085;SHT85;21267;51.032;6.998;2023-02-10T14:47:53;9.82;61.96
35085;SHT85;21267;51.032;6.998;2023-02-10T14:50:24;10.11;61.83
35085;SHT85;21267;51.032;6.998;2023-02-10T14:52:51;10.26;60.87
35085;SHT85;21267;51.032;6.998;2023-02-10T14:55:31;10.43;60.59
35085;SHT85;21267;51.032;6.998;2023-02-10T14:58:09;10.57;60.45
35085;SHT85;21267;51.032;6.998;2023-02-10T15:00:37;10.80;60.37
35085;SHT85;21267;51.032;6.998;2023-02-10T15:03:05;10.84;59.81
35085;SHT85;21267;51.032;6.998;2023-02-10T15:05:37;10.53;60.31
35085;SHT85;21267;51.032;6.998;2023-02-10T15:08:07;10.73;60.39
35085;SHT85;21267;51.032;6.998;2023-02-10T15:10:38;10.94;59.66
35085;SHT85;21267;51.032;6.998;2023-02-10T15:13:08;10.76;60.17
35085;SHT85;21267;51.032;6.998;2023-02-10T15:15:41;10.61;60.31
35085;SHT85;21267;51.032;6.998;2023-02-10T15:18:17;10.52;60.64
35085;SHT85;21267;51.032;6.998;2023-02-10T15:21:03;10.02;61.66
35085;SHT85;21267;51.032;6.998;2023-02-10T15:23:30;9.84;62.21
35085;SHT85;21267;51.032;6.998;2023-02-10T15:28:27;9.69;63.39
35085;SHT85;21267;51.032;6.998;2023-02-10T15:31:06;9.41;64.19
35085;SHT85;21267;51.032;6.998;2023-02-10T15:33:51;9.33;64.00
35085;SHT85;21267;51.032;6.998;2023-02-10T15:36:21;9.16;64.64
35085;SHT85;21267;51.032;6.998;2023-02-10T15:38:57;9.08;65.06
35085;SHT85;21267;51.032;6.998;2023-02-10T15:43:54;9.02;65.34
35085;SHT85;21267;51.032;6.998;2023-02-10T15:46:26;8.95;65.78
35085;SHT85;21267;51.032;6.998;2023-02-10T15:49:26;8.92;65.77
35085;SHT85;21267;51.032;6.998;2023-02-10T15:51:54;8.88;65.92
35085;SHT85;21267;51.032;6.998;2023-02-10T15:54:22;8.92;66.19
35085;SHT85;21267;51.032;6.998;2023-02-10T15:57:02;9.12;65.77
35085;SHT85;21267;51.032;6.998;2023-02-10T15:59:29;9.03;65.87
35085;SHT85;21267;51.032;6.998;2023-02-10T16:01:58;8.96;66.33
35085;SHT85;21267;51.032;6.998;2023-02-10T16:04:25;8.88;66.40
35085;SHT85;21267;51.032;6.998;2023-02-10T16:06:53;8.76;66.86
35085;SHT85;21267;51.032;6.998;2023-02-10T16:09:20;8.71;67.16
35085;SHT85;21267;51.032;6.998;2023-02-10T16:11:46;8.71;67.26
35085;SHT85;21267;51.032;6.998;2023-02-10T16:14:13;8.74;67.19
35085;SHT85;21267;51.032;6.998;2023-02-10T16:16:45;8.64;67.34
35085;SHT85;21267;51.032;6.998;2023-02-10T16:19:13;8.57;67.61
35085;SHT85;21267;51.032;6.998;2023-02-10T16:21:41;8.57;67.56
35085;SHT85;21267;51.032;6.998;2023-02-10T16:24:13;8.36;68.31
35085;SHT85;21267;51.032;6.998;2023-02-10T16:26:41;8.37;68.20
35085;SHT85;21267;51.032;6.998;2023-02-10T16:29:22;8.34;68.59
35085;SHT85;21267;51.032;6.998;2023-02-10T16:31:49;8.20;68.84
35085;SHT85;21267;51.032;6.998;2023-02-10T16:34:16;8.26;69.04
35085;SHT85;21267;51.032;6.998;2023-02-10T16:36:43;8.22;68.69
35085;SHT85;21267;51.032;6.998;2023-02-10T16:39:12;8.19;68.60
35085;SHT85;21267;51.032;6.998;2023-02-10T16:41:39;8.36;68.36
35085;SHT85;21267;51.032;6.998;2023-02-10T16:44:06;8.14;68.73
35085;SHT85;21267;51.032;6.998;2023-02-10T16:46:32;8.24;68.91
35085;SHT85;21267;51.032;6.998;2023-02-10T16:48:59;8.23;68.73
35085;SHT85;21267;51.032;6.998;2023-02-10T16:51:26;8.10;69.38
35085;SHT85;21267;51.032;6.998;2023-02-10T16:53:52;8.00;69.94
35085;SHT85;21267;51.032;6.998;2023-02-10T16:56:22;7.75;70.54
35085;SHT85;21267;51.032;6.998;2023-02-10T16:58:49;7.86;70.69
35085;SHT85;21267;51.032;6.998;2023-02-10T17:01:16;8.06;69.77
35085;SHT85;21267;51.032;6.998;2023-02-10T17:03:44;7.87;70.17
35085;SHT85;21267;51.032;6.998;2023-02-10T17:06:17;7.87;69.88
35085;SHT85;21267;51.032;6.998;2023-02-10T17:08:45;7.76;70.53
35085;SHT85;21267;51.032;6.998;2023-02-10T17:11:12;7.64;71.12
35085;SHT85;21267;51.032;6.998;2023-02-10T17:13:39;7.65;71.47
35085;SHT85;21267;51.032;6.998;2023-02-10T17:16:05;7.75;70.81
35085;SHT85;21267;51.032;6.998;2023-02-10T17:18:32;7.52;71.71
35085;SHT85;21267;51.032;6.998;2023-02-10T17:21:00;7.45;71.77
35085;SHT85;21267;51.032;6.998;2023-02-10T17:23:27;7.38;72.26
35085;SHT85;21267;51.032;6.998;2023-02-10T17:25:53;7.35;72.50
35085;SHT85;21267;51.032;6.998;2023-02-10T17:28:20;7.56;72.37
35085;SHT85;21267;51.032;6.998;2023-02-10T17:30:46;7.58;72.28
35085;SHT85;21267;51.032;6.998;2023-02-10T17:33:23;7.87;71.49
35085;SHT85;21267;51.032;6.998;2023-02-10T17:35:50;7.97;71.14
35085;SHT85;21267;51.032;6.998;2023-02-10T17:38:17;7.99;70.95
35085;SHT85;21267;51.032;6.998;2023-02-10T17:41:02;8.02;70.93
35085;SHT85;21267;51.032;6.998;2023-02-10T17:43:28;8.00;71.12
35085;SHT85;21267;51.032;6.998;2023-02-10T17:45:55;7.89;71.38
35085;SHT85;21267;51.032;6.998;2023-02-10T17:48:21;7.86;71.42
35085;SHT85;21267;51.032;6.998;2023-02-10T17:50:48;7.87;71.56
35085;SHT85;21267;51.032;6.998;2023-02-10T17:53:14;7.73;72.36
35085;SHT85;21267;51.032;6.998;2023-02-10T17:55:41;7.62;72.85
35085;SHT85;21267;51.032;6.998;2023-02-10T17:58:08;7.50;73.03
35085;SHT85;21267;51.032;6.998;2023-02-10T18:00:35;7.42;72.91
35085;SHT85;21267;51.032;6.998;2023-02-10T18:03:02;7.41;72.81
35085;SHT85;21267;51.032;6.998;2023-02-10T18:05:28;7.44;72.57
35085;SHT85;21267;51.032;6.998;2023-02-10T18:07:55;7.52;72.94
35085;SHT85;21267;51.032;6.998;2023-02-10T18:10:21;7.56;73.07
35085;SHT85;21267;51.032;6.998;2023-02-10T18:12:48;7.51;72.98
35085;SHT85;21267;51.032;6.998;2023-02-10T18:15:14;7.66;72.72
35085;SHT85;21267;51.032;6.998;2023-02-10T18:17:41;7.79;72.33
35085;SHT85;21267;51.032;6.998;2023-02-10T18:20:10;7.82;72.31
35085;SHT85;21267;51.032;6.998;2023-02-10T18:22:37;7.99;71.85
35085;SHT85;21267;51.032;6.998;2023-02-10T18:25:04;8.04;71.37
35085;SHT85;21267;51.032;6.998;2023-02-10T18:27:31;8.00;71.60
35085;SHT85;21267;51.032;6.998;2023-02-10T18:29:57;7.94;71.80
35085;SHT85;21267;51.032;6.998;2023-02-10T18:32:24;7.92;72.08
35085;SHT85;21267;51.032;6.998;2023-02-10T18:34:50;7.85;72.40
35085;SHT85;21267;51.032;6.998;2023-02-10T18:37:17;7.83;72.50
35085;SHT85;21267;51.032;6.998;2023-02-10T18:39:44;7.81;72.75
35085;SHT85;21267;51.032;6.998;2023-02-10T18:42:11;7.82;72.80
35085;SHT85;21267;51.032;6.998;2023-02-10T18:44:37;7.68;73.18
35085;SHT85;21267;51.032;6.998;2023-02-10T18:47:04;7.75;73.94
35085;SHT85;21267;51.032;6.998;2023-02-10T18:49:30;7.62;74.27
35085;SHT85;21267;51.032;6.998;2023-02-10T18:51:57;7.55;74.60
35085;SHT85;21267;51.032;6.998;2023-02-10T18:58:41;7.47;75.25
35085;SHT85;21267;51.032;6.998;2023-02-10T19:01:22;7.28;76.10
35085;SHT85;21267;51.032;6.998;2023-02-10T19:03:49;7.34;76.00
35085;SHT85;21267;51.032;6.998;2023-02-10T19:06:16;7.28;76.49
35085;SHT85;21267;51.032;6.998;2023-02-10T19:08:50;7.30;76.43
35085;SHT85;21267;51.032;6.998;2023-02-10T19:11:17;7.25;76.57
35085;SHT85;21267;51.032;6.998;2023-02-10T19:13:43;7.18;76.72
35085;SHT85;21267;51.032;6.998;2023-02-10T19:16:11;7.18;76.82
35085;SHT85;21267;51.032;6.998;2023-02-10T19:18:39;7.13;77.38
35085;SHT85;21267;51.032;6.998;2023-02-10T19:21:06;7.21;77.27
35085;SHT85;21267;51.032;6.998;2023-02-10T19:23:39;7.23;77.60
35085;SHT85;21267;51.032;6.998;2023-02-10T19:26:20;7.23;77.86
35085;SHT85;21267;51.032;6.998;2023-02-10T19:29:00;7.21;78.11
35085;SHT85;21267;51.032;6.998;2023-02-10T19:31:43;7.21;78.30
35085;SHT85;21267;51.032;6.998;2023-02-10T19:34:24;7.34;78.59
35085;SHT85;21267;51.032;6.998;2023-02-10T19:37:04;7.27;79.00
35085;SHT85;21267;51.032;6.998;2023-02-10T19:39:45;7.24;79.38
35085;SHT85;21267;51.032;6.998;2023-02-10T19:42:25;7.24;79.42
35085;SHT85;21267;51.032;6.998;2023-02-10T19:44:52;7.28;79.66
35085;SHT85;21267;51.032;6.998;2023-02-10T19:47:32;7.28;79.71
35085;SHT85;21267;51.032;6.998;2023-02-10T19:49:59;7.25;79.82
35085;SHT85;21267;51.032;6.998;2023-02-10T19:52:26;7.27;80.21
35085;SHT85;21267;51.032;6.998;2023-02-10T19:55:07;7.30;80.67
35085;SHT85;21267;51.032;6.998;2023-02-10T19:57:34;7.23;80.86
35085;SHT85;21267;51.032;6.998;2023-02-10T20:00:00;7.27;80.71
35085;SHT85;21267;51.032;6.998;2023-02-10T20:02:27;7.21;81.27
35085;SHT85;21267;51.032;6.998;2023-02-10T20:04:53;7.11;81.11
35085;SHT85;21267;51.032;6.998;2023-02-10T20:07:20;6.99;81.28
35085;SHT85;21267;51.032;6.998;2023-02-10T20:09:46;6.93;81.34
35085;SHT85;21267;51.032;6.998;2023-02-10T20:12:13;6.94;81.50
35085;SHT85;21267;51.032;6.998;2023-02-10T20:14:41;6.90;81.51
35085;SHT85;21267;51.032;6.998;2023-02-10T20:17:07;7.14;80.96
35085;SHT85;21267;51.032;6.998;2023-02-10T20:19:34;7.28;80.52
35085;SHT85;21267;51.032;6.998;2023-02-10T20:22:00;7.10;81.15
35085;SHT85;21267;51.032;6.998;2023-02-10T20:24:27;7.18;80.96
35085;SHT85;21267;51.032;6.998;2023-02-10T20:26:53;7.25;80.54
35085;SHT85;21267;51.032;6.998;2023-02-10T20:29:20;7.21;80.80
35085;SHT85;21267;51.032;6.998;2023-02-10T20:31:46;7.18;80.97
35085;SHT85;21267;51.032;6.998;2023-02-10T20:34:13;7.27;80.85
35085;SHT85;21267;51.032;6.998;2023-02-10T20:36:43;7.35;80.39
35085;SHT85;21267;51.032;6.998;2023-02-10T20:39:10;7.25;80.83
35085;SHT85;21267;51.032;6.998;2023-02-10T20:41:37;7.18;81.33
35085;SHT85;21267;51.032;6.998;2023-02-10T20:44:03;7.24;80.79
35085;SHT85;21267;51.032;6.998;2023-02-10T20:46:30;7.18;80.96
35085;SHT85;21267;51.032;6.998;2023-02-10T20:48:58;7.24;80.93
35085;SHT85;21267;51.032;6.998;2023-02-10T20:51:31;7.21;80.80
35085;SHT85;21267;51.032;6.998;2023-02-10T20:53:58;7.21;80.71
35085;SHT85;21267;51.032;6.998;2023-02-10T20:56:24;7.20;80.89
35085;SHT85;21267;51.032;6.998;2023-02-10T20:58:51;7.14;81.27
35085;SHT85;21267;51.032;6.998;2023-02-10T21:01:18;7.25;80.61
35085;SHT85;21267;51.032;6.998;2023-02-10T21:03:45;7.27;80.68
35085;SHT85;21267;51.032;6.998;2023-02-10T21:06:22;7.38;80.33
35085;SHT85;21267;51.032;6.998;2023-02-10T21:08:51;7.27;80.18
35085;SHT85;21267;51.032;6.998;2023-02-10T21:11:21;7.24;80.85
35085;SHT85;21267;51.032;6.998;2023-02-10T21:13:48;7.24;80.63
35085;SHT85;21267;51.032;6.998;2023-02-10T21:16:17;7.31;80.66
35085;SHT85;21267;51.032;6.998;2023-02-10T21:18:45;7.40;80.57
35085;SHT85;21267;51.032;6.998;2023-02-10T21:21:13;7.52;80.60
35085;SHT85;21267;51.032;6.998;2023-02-10T21:23:40;7.48;80.44
35085;SHT85;21267;51.032;6.998;2023-02-10T21:26:07;7.58;79.91
35085;SHT85;21267;51.032;6.998;2023-02-10T21:28:35;7.52;79.91
35085;SHT85;21267;51.032;6.998;2023-02-10T21:31:17;7.45;80.18
35085;SHT85;21267;51.032;6.998;2023-02-10T21:33:44;7.51;79.96
35085;SHT85;21267;51.032;6.998;2023-02-10T21:36:20;7.50;80.13
35085;SHT85;21267;51.032;6.998;2023-02-10T21:38:48;7.61;79.91
35085;SHT85;21267;51.032;6.998;2023-02-10T21:41:15;7.51;79.71
35085;SHT85;21267;51.032;6.998;2023-02-10T21:44:21;7.52;79.73
35085;SHT85;21267;51.032;6.998;2023-02-10T21:47:00;7.52;79.72
35085;SHT85;21267;51.032;6.998;2023-02-10T21:49:28;7.52;79.64
35085;SHT85;21267;51.032;6.998;2023-02-10T21:51:55;7.54;79.73
35085;SHT85;21267;51.032;6.998;2023-02-10T21:54:24;7.66;79.53
35085;SHT85;21267;51.032;6.998;2023-02-10T21:56:51;7.52;80.06
35085;SHT85;21267;51.032;6.998;2023-02-10T21:59:18;7.47;80.26
35085;SHT85;21267;51.032;6.998;2023-02-10T22:01:45;7.47;80.57
35085;SHT85;21267;51.032;6.998;2023-02-10T22:04:12;7.48;80.40
35085;SHT85;21267;51.032;6.998;2023-02-10T22:06:41;7.40;80.52
35085;SHT85;21267;51.032;6.998;2023-02-10T22:09:12;7.32;80.85
35085;SHT85;21267;51.032;6.998;2023-02-10T22:11:39;7.28;80.62
35085;SHT85;21267;51.032;6.998;2023-02-10T22:14:05;7.21;81.03
35085;SHT85;21267;51.032;6.998;2023-02-10T22:16:32;7.25;81.02
35085;SHT85;21267;51.032;6.998;2023-02-10T22:18:59;7.21;81.12
35085;SHT85;21267;51.032;6.998;2023-02-10T22:21:25;7.23;80.90
35085;SHT85;21267;51.032;6.998;2023-02-10T22:23:55;7.36;80.73
35085;SHT85;21267;51.032;6.998;2023-02-10T22:26:24;7.23;80.97
35085;SHT85;21267;51.032;6.998;2023-02-10T22:28:52;7.35;81.04
35085;SHT85;21267;51.032;6.998;2023-02-10T22:31:21;7.42;80.93
35085;SHT85;21267;51.032;6.998;2023-02-10T22:33:50;7.42;80.83
35085;SHT85;21267;51.032;6.998;2023-02-10T22:36:19;7.38;81.22
35085;SHT85;21267;51.032;6.998;2023-02-10T22:38:45;7.51;80.76
35085;SHT85;21267;51.032;6.998;2023-02-10T22:41:15;7.58;80.49
35085;SHT85;21267;51.032;6.998;2023-02-10T22:43:42;7.65;79.84
35085;SHT85;21267;51.032;6.998;2023-02-10T22:46:10;7.52;80.28
35085;SHT85;21267;51.032;6.998;2023-02-10T22:48:37;7.51;80.31
35085;SHT85;21267;51.032;6.998;2023-02-10T22:51:12;7.58;80.33
35085;SHT85;21267;51.032;6.998;2023-02-10T22:53:40;7.62;79.66
35085;SHT85;21267;51.032;6.998;2023-02-10T22:56:18;7.58;79.93
35085;SHT85;21267;51.032;6.998;2023-02-10T22:58:46;7.52;80.02
35085;SHT85;21267;51.032;6.998;2023-02-10T23:01:22;7.54;79.98
35085;SHT85;21267;51.032;6.998;2023-02-10T23:03:49;7.58;79.95
35085;SHT85;21267;51.032;6.998;2023-02-10T23:06:15;7.50;80.23
35085;SHT85;21267;51.032;6.998;2023-02-10T23:08:41;7.51;80.19
35085;SHT85;21267;51.032;6.998;2023-02-10T23:11:08;7.52;80.03
35085;SHT85;21267;51.032;6.998;2023-02-10T23:13:35;7.47;80.18
35085;SHT85;21267;51.032;6.998;2023-02-10T23:16:02;7.41;80.39
35085;SHT85;21267;51.032;6.998;2023-02-10T23:18:29;7.47;80.21
35085;SHT85;21267;51.032;6.998;2023-02-10T23:20:57;7.44;80.34
35085;SHT85;21267;51.032;6.998;2023-02-10T23:23:24;7.40;80.36
35085;SHT85;21267;51.032;6.998;2023-02-10T23:25:52;7.42;80.25
35085;SHT85;21267;51.032;6.998;2023-02-10T23:28:20;7.52;80.32
35085;SHT85;21267;51.032;6.998;2023-02-10T23:30:46;7.41;80.44
35085;SHT85;21267;51.032;6.998;2023-02-10T23:33:13;7.40;80.26
35085;SHT85;21267;51.032;6.998;2023-02-10T23:35:48;7.36;80.44
35085;SHT85;21267;51.032;6.998;2023-02-10T23:38:17;7.48;80.17
35085;SHT85;21267;51.032;6.998;2023-02-10T23:40:44;7.40;80.25
35085;SHT85;21267;51.032;6.998;2023-02-10T23:43:11;7.48;80.31
35085;SHT85;21267;51.032;6.998;2023-02-10T23:45:38;7.38;80.24
35085;SHT85;21267;51.032;6.998;2023-02-10T23:48:06;7.34;80.54